createdAt,value
2023-05-04T00:01:24.867Z,4.60
2023-05-04T00:03:52.718Z,4.60
2023-05-04T00:06:20.075Z,4.60
2023-05-04T00:08:47.292Z,4.50
2023-05-04T00:11:14.544Z,4.50
2023-05-04T00:13:41.651Z,4.70
2023-05-04T00:16:10.925Z,4.40
2023-05-04T00:18:39.205Z,4.40
2023-05-04T00:21:06.365Z,4.40
2023-05-04T00:23:33.493Z,4.40
2023-05-04T00:26:01.068Z,4.30
2023-05-04T00:28:28.327Z,4.30
2023-05-04T00:30:56.271Z,4.30
2023-05-04T00:33:24.078Z,4.30
2023-05-04T00:35:51.417Z,4.20
2023-05-04T00:38:19.257Z,4.20
2023-05-04T00:40:46.414Z,4.20
2023-05-04T00:43:13.786Z,4.20
2023-05-04T00:45:41.834Z,4.20
2023-05-04T00:48:09.245Z,4.20
2023-05-04T00:50:36.497Z,4.20
2023-05-04T00:53:09.597Z,4.20
2023-05-04T00:55:39.271Z,4.20
2023-05-04T00:58:09.173Z,4.20
2023-05-04T01:01:02.357Z,4.10
2023-05-04T01:03:31.110Z,4.10
2023-05-04T01:06:08.228Z,4.00
2023-05-04T01:08:58.743Z,4.00
2023-05-04T01:11:38.814Z,4.00
2023-05-04T01:14:06.911Z,3.90
2023-05-04T01:16:34.153Z,4.00
2023-05-04T01:19:03.406Z,3.90
2023-05-04T01:21:31.253Z,3.90
2023-05-04T01:23:59.272Z,3.90
2023-05-04T01:26:30.610Z,3.80
2023-05-04T01:29:16.515Z,3.80
2023-05-04T01:31:46.417Z,3.80
2023-05-04T01:34:15.865Z,3.80
2023-05-04T01:36:45.689Z,3.80
2023-05-04T01:39:12.911Z,3.80
2023-05-04T01:41:41.577Z,3.70
2023-05-04T01:44:08.803Z,3.60
2023-05-04T01:46:36.164Z,3.70
2023-05-04T01:49:03.565Z,3.70
2023-05-04T01:51:30.696Z,3.70
2023-05-04T01:53:57.852Z,3.80
2023-05-04T01:56:24.988Z,3.90
2023-05-04T01:58:52.408Z,4.00
2023-05-04T02:01:19.534Z,3.90
2023-05-04T02:03:48.461Z,3.70
2023-05-04T02:06:15.691Z,3.60
2023-05-04T02:08:42.867Z,3.60
2023-05-04T02:11:09.998Z,3.60
2023-05-04T02:13:37.266Z,3.60
2023-05-04T02:16:04.872Z,3.50
2023-05-04T02:18:32.120Z,3.40
2023-05-04T02:20:59.640Z,3.40
2023-05-04T02:23:26.799Z,3.30
2023-05-04T02:25:55.881Z,3.30
2023-05-04T02:28:24.237Z,3.30
2023-05-04T02:30:51.480Z,3.20
2023-05-04T02:33:18.658Z,3.20
2023-05-04T02:35:45.803Z,3.20
2023-05-04T02:38:12.995Z,3.30
2023-05-04T02:40:41.381Z,3.30
2023-05-04T02:43:08.570Z,3.40
2023-05-04T02:45:36.296Z,3.50
2023-05-04T02:48:03.739Z,3.50
2023-05-04T02:50:32.979Z,3.40
2023-05-04T02:53:00.126Z,3.30
2023-05-04T02:55:27.350Z,3.20
2023-05-04T02:57:54.494Z,3.20
2023-05-04T03:00:21.983Z,3.10
2023-05-04T03:02:49.155Z,3.10
2023-05-04T03:05:16.475Z,3.10
2023-05-04T03:07:43.672Z,3.00
2023-05-04T03:10:11.406Z,3.00
2023-05-04T03:12:38.704Z,3.00
2023-05-04T03:15:06.769Z,3.00
2023-05-04T03:17:34.422Z,3.10
2023-05-04T03:20:02.834Z,3.10
2023-05-04T03:22:32.230Z,3.20
2023-05-04T03:24:59.679Z,3.20
2023-05-04T03:27:26.892Z,3.20
2023-05-04T03:29:54.013Z,3.20
2023-05-04T03:32:21.166Z,3.20
2023-05-04T03:34:48.334Z,3.10
2023-05-04T03:37:17.043Z,3.20
2023-05-04T03:39:44.431Z,3.20
2023-05-04T03:42:11.713Z,3.10
2023-05-04T03:44:38.875Z,3.10
2023-05-04T03:47:06.217Z,3.10
2023-05-04T03:49:34.973Z,3.10
2023-05-04T03:52:02.103Z,3.10
2023-05-04T03:54:29.337Z,3.10
2023-05-04T03:56:56.485Z,3.20
2023-05-04T03:59:24.431Z,3.20
2023-05-04T04:01:52.699Z,3.10
2023-05-04T04:04:19.919Z,3.10
2023-05-04T04:06:47.179Z,3.00
2023-05-04T04:09:14.485Z,3.00
2023-05-04T04:11:41.693Z,3.10
2023-05-04T04:14:08.802Z,3.10
2023-05-04T04:16:36.139Z,3.20
2023-05-04T04:19:03.318Z,3.30
2023-05-04T04:21:30.454Z,3.30
2023-05-04T04:23:57.605Z,3.40
2023-05-04T04:26:24.677Z,3.50
2023-05-04T04:28:51.790Z,3.60
2023-05-04T04:31:19.505Z,3.70
2023-05-04T04:33:47.335Z,3.80
2023-05-04T04:36:16.761Z,4.00
2023-05-04T04:38:44.473Z,4.10
2023-05-04T04:41:11.769Z,4.30
2023-05-04T04:43:39.477Z,4.40
2023-05-04T04:46:06.998Z,4.60
2023-05-04T04:48:34.114Z,4.60
2023-05-04T04:51:01.180Z,4.80
2023-05-04T04:53:28.399Z,4.80
2023-05-04T04:55:55.588Z,5.10
2023-05-04T04:58:22.802Z,5.20
2023-05-04T05:00:52.110Z,5.30
2023-05-04T05:03:19.887Z,5.40
2023-05-04T05:05:47.139Z,5.40
2023-05-04T05:08:14.219Z,5.50
2023-05-04T05:10:43.871Z,5.50
2023-05-04T05:13:11.324Z,5.70
2023-05-04T05:15:38.729Z,5.80
2023-05-04T05:18:05.987Z,5.90
2023-05-04T05:20:33.301Z,6.10
2023-05-04T05:23:00.507Z,6.30
2023-05-04T05:25:28.039Z,6.60
2023-05-04T05:27:55.372Z,7.00
2023-05-04T05:30:22.714Z,7.30
2023-05-04T05:32:49.826Z,7.60
2023-05-04T05:35:17.140Z,7.90
2023-05-04T05:37:44.286Z,8.20
2023-05-04T05:40:12.341Z,8.50
2023-05-04T05:42:42.950Z,8.70
2023-05-04T05:45:11.258Z,8.70
2023-05-04T05:47:38.408Z,8.80
2023-05-04T05:50:07.549Z,8.90
2023-05-04T05:52:35.250Z,9.20
2023-05-04T05:55:02.918Z,9.70
2023-05-04T05:57:30.758Z,10.20
2023-05-04T05:59:58.116Z,10.70
2023-05-04T06:02:25.353Z,10.90
2023-05-04T06:04:52.760Z,11.30
2023-05-04T06:07:21.646Z,11.60
2023-05-04T06:09:49.008Z,11.70
2023-05-04T06:12:17.275Z,11.90
2023-05-04T06:14:44.449Z,12.10
2023-05-04T06:17:11.802Z,12.30
2023-05-04T06:19:39.497Z,12.00
2023-05-04T06:22:06.827Z,12.00
2023-05-04T06:24:33.963Z,12.30
2023-05-04T06:27:01.876Z,12.70
2023-05-04T06:29:29.056Z,13.10
2023-05-04T06:31:56.617Z,13.50
2023-05-04T06:34:24.111Z,12.90
2023-05-04T06:36:51.250Z,12.50
2023-05-04T06:39:18.665Z,12.70
2023-05-04T06:41:46.211Z,13.00
2023-05-04T06:44:14.152Z,12.90
2023-05-04T06:46:41.302Z,13.10
2023-05-04T06:49:08.573Z,13.10
2023-05-04T06:51:37.766Z,13.20
2023-05-04T06:54:05.040Z,13.30
2023-05-04T06:56:32.886Z,13.40
2023-05-04T06:59:00.305Z,13.70
2023-05-04T07:01:27.608Z,13.30
2023-05-04T07:03:58.295Z,13.00
2023-05-04T07:06:29.407Z,13.00
2023-05-04T07:08:57.095Z,12.70
2023-05-04T07:11:24.856Z,12.70
2023-05-04T07:13:52.006Z,13.10
2023-05-04T07:16:19.220Z,13.10
2023-05-04T07:18:46.506Z,12.70
2023-05-04T07:21:27.035Z,12.70
2023-05-04T07:23:55.418Z,12.80
2023-05-04T07:26:23.350Z,13.00
2023-05-04T07:28:50.717Z,12.70
2023-05-04T07:31:17.937Z,12.80
2023-05-04T07:33:45.766Z,13.40
2023-05-04T07:36:13.005Z,13.80
2023-05-04T07:38:40.612Z,14.20
2023-05-04T07:41:07.701Z,15.50
2023-05-04T07:43:34.804Z,14.10
2023-05-04T07:46:02.813Z,14.60
2023-05-04T07:48:30.024Z,15.00
2023-05-04T07:50:57.695Z,15.50
2023-05-04T07:53:26.449Z,15.70
2023-05-04T07:55:57.580Z,15.70
2023-05-04T07:58:24.752Z,15.70
2023-05-04T08:00:52.035Z,15.90
2023-05-04T08:03:19.266Z,15.90
2023-05-04T08:05:46.499Z,16.20
2023-05-04T08:08:13.591Z,16.50
2023-05-04T08:10:40.859Z,16.90
2023-05-04T08:13:08.098Z,17.00
2023-05-04T08:15:35.315Z,17.10
2023-05-04T08:18:02.846Z,17.20
2023-05-04T08:20:29.997Z,16.90
2023-05-04T08:22:57.139Z,16.90
2023-05-04T08:25:24.618Z,17.30
2023-05-04T08:27:53.189Z,17.70
2023-05-04T08:30:20.366Z,17.60
2023-05-04T08:32:48.472Z,17.90
2023-05-04T08:35:15.819Z,18.20
2023-05-04T08:37:43.150Z,17.90
2023-05-04T08:40:11.022Z,17.30
2023-05-04T08:42:38.110Z,16.90
2023-05-04T08:45:06.200Z,17.00
2023-05-04T08:47:33.813Z,17.10
2023-05-04T08:50:01.113Z,16.90
2023-05-04T08:52:28.858Z,16.50
2023-05-04T08:54:57.630Z,16.30
2023-05-04T08:57:26.090Z,16.30
2023-05-04T08:59:55.447Z,16.30
2023-05-04T09:02:24.484Z,16.20
2023-05-04T09:04:53.460Z,16.00
2023-05-04T09:07:21.828Z,15.90
2023-05-04T09:09:51.617Z,16.00
2023-05-04T09:12:19.398Z,16.00
2023-05-04T09:14:46.813Z,16.40
2023-05-04T09:17:25.998Z,16.80
2023-05-04T09:20:02.971Z,17.10
2023-05-04T09:22:30.681Z,17.80
2023-05-04T09:25:12.687Z,18.10
2023-05-04T09:27:42.674Z,18.30
2023-05-04T09:30:12.650Z,18.60
2023-05-04T09:32:46.844Z,18.70
2023-05-04T09:35:29.412Z,18.60
2023-05-04T09:38:00.265Z,18.60
2023-05-04T09:40:41.117Z,18.80
2023-05-04T09:43:09.393Z,19.00
2023-05-04T09:45:45.052Z,18.80
2023-05-04T09:48:27.061Z,19.00
2023-05-04T09:51:02.600Z,19.30
2023-05-04T09:53:31.542Z,19.60
2023-05-04T09:56:09.364Z,19.80
2023-05-04T09:58:36.956Z,19.40
2023-05-04T10:01:04.987Z,20.50
2023-05-04T10:03:32.901Z,20.60
2023-05-04T10:06:03.306Z,20.10
2023-05-04T10:08:31.732Z,19.60
2023-05-04T10:10:58.864Z,19.20
2023-05-04T10:13:26.511Z,19.10
2023-05-04T10:16:23.151Z,19.10
2023-05-04T10:19:38.151Z,18.90
2023-05-04T10:22:42.476Z,18.00
2023-05-04T10:25:25.009Z,17.80
2023-05-04T10:28:16.663Z,18.00
2023-05-04T10:30:44.208Z,18.00
2023-05-04T10:33:12.113Z,18.20
2023-05-04T10:35:53.932Z,18.50
2023-05-04T10:38:35.580Z,18.60
2023-05-04T10:41:17.382Z,18.80
2023-05-04T10:43:53.456Z,19.20
2023-05-04T10:46:22.218Z,19.80
2023-05-04T10:48:50.358Z,20.40
2023-05-04T10:51:23.612Z,20.70
2023-05-04T10:53:52.493Z,20.90
2023-05-04T10:56:27.951Z,21.10
2023-05-04T10:58:55.648Z,21.20
2023-05-04T11:01:23.189Z,21.40
2023-05-04T11:03:52.523Z,21.10
2023-05-04T11:06:24.377Z,21.50
2023-05-04T11:09:03.214Z,22.30
2023-05-04T11:11:30.606Z,23.00
2023-05-04T11:13:57.820Z,23.10
2023-05-04T11:16:26.777Z,23.60
2023-05-04T11:18:54.883Z,24.20
2023-05-04T11:21:26.775Z,24.50
2023-05-04T11:23:58.560Z,24.30
2023-05-04T11:26:26.636Z,23.60
2023-05-04T11:28:53.903Z,23.10
2023-05-04T11:31:21.723Z,23.10
2023-05-04T11:33:54.562Z,23.80
2023-05-04T11:36:22.870Z,24.30
2023-05-04T11:38:50.243Z,24.60
2023-05-04T11:41:17.329Z,24.60
2023-05-04T11:43:46.486Z,24.70
2023-05-04T11:46:14.745Z,25.10
2023-05-04T11:48:42.312Z,25.80
2023-05-04T11:51:09.509Z,25.60
2023-05-04T11:53:38.518Z,25.00
2023-05-04T11:56:08.335Z,24.70
2023-05-04T11:58:35.769Z,25.00
2023-05-04T12:01:04.053Z,25.00
2023-05-04T12:03:48.483Z,25.60
2023-05-04T12:06:32.262Z,25.80
2023-05-04T12:09:06.765Z,26.20
2023-05-04T12:11:35.693Z,26.70
2023-05-04T12:14:07.254Z,27.30
2023-05-04T12:16:34.705Z,27.70
2023-05-04T12:19:15.160Z,27.20
2023-05-04T12:21:58.274Z,26.30
2023-05-04T12:24:27.881Z,26.00
2023-05-04T12:26:54.998Z,26.60
2023-05-04T12:29:22.395Z,27.50
2023-05-04T12:31:50.003Z,28.00
2023-05-04T12:34:17.158Z,28.20
2023-05-04T12:36:44.493Z,26.60
2023-05-04T12:39:11.792Z,25.60
2023-05-04T12:41:38.880Z,24.10
2023-05-04T12:44:06.010Z,23.20
2023-05-04T12:46:33.234Z,23.20
2023-05-04T12:49:00.664Z,23.00
2023-05-04T12:51:27.746Z,22.50
2023-05-04T12:53:55.945Z,22.10
2023-05-04T12:56:23.133Z,21.90
2023-05-04T12:58:50.658Z,21.80
2023-05-04T13:01:18.461Z,21.50
2023-05-04T13:03:46.098Z,21.70
2023-05-04T13:06:13.356Z,22.30
2023-05-04T13:08:40.535Z,23.20
2023-05-04T13:11:07.943Z,24.50
2023-05-04T13:13:35.108Z,25.40
2023-05-04T13:16:02.354Z,25.30
2023-05-04T13:18:29.500Z,24.80
2023-05-04T13:20:57.067Z,24.80
2023-05-04T13:23:24.372Z,25.00
2023-05-04T13:25:51.626Z,24.60
2023-05-04T13:28:19.387Z,23.20
2023-05-04T13:30:46.656Z,23.10
2023-05-04T13:33:28.046Z,23.40
2023-05-04T13:35:57.982Z,24.00
2023-05-04T13:38:25.944Z,23.10
2023-05-04T13:40:53.557Z,23.10
2023-05-04T13:43:22.177Z,23.40
2023-05-04T13:45:49.251Z,23.20
2023-05-04T13:48:16.452Z,23.10
2023-05-04T13:50:43.559Z,22.20
2023-05-04T13:53:13.282Z,21.30
2023-05-04T13:55:40.571Z,20.90
2023-05-04T13:58:07.724Z,20.70
2023-05-04T14:00:34.835Z,20.20
2023-05-04T14:03:02.096Z,19.40
2023-05-04T14:05:30.086Z,19.30
2023-05-04T14:07:57.532Z,19.40
2023-05-04T14:10:24.751Z,19.50
2023-05-04T14:12:51.951Z,19.60
2023-05-04T14:15:22.569Z,19.70
2023-05-04T14:17:50.554Z,19.30
2023-05-04T14:20:18.056Z,18.90
2023-05-04T14:22:45.377Z,18.40
2023-05-04T14:25:13.097Z,18.00
2023-05-04T14:27:41.388Z,17.80
2023-05-04T14:30:09.523Z,18.00
2023-05-04T14:32:36.957Z,18.40
2023-05-04T14:35:08.436Z,18.60
2023-05-04T14:37:38.755Z,18.50
2023-05-04T14:40:13.292Z,18.50
2023-05-04T14:42:40.550Z,18.20
2023-05-04T14:45:09.277Z,18.00
2023-05-04T14:47:37.072Z,17.70
2023-05-04T14:50:05.352Z,17.60
2023-05-04T14:52:32.669Z,17.80
2023-05-04T14:54:59.776Z,18.10
2023-05-04T14:57:27.087Z,17.80
2023-05-04T14:59:54.713Z,17.80
2023-05-04T15:02:22.111Z,17.70
2023-05-04T15:04:49.483Z,17.60
2023-05-04T15:07:18.748Z,17.50
2023-05-04T15:09:46.245Z,17.50
2023-05-04T15:12:13.326Z,17.30
2023-05-04T15:14:40.495Z,17.20
2023-05-04T15:17:07.670Z,17.30
2023-05-04T15:19:39.551Z,17.10
2023-05-04T15:22:07.421Z,17.10
2023-05-04T15:24:34.608Z,16.80
2023-05-04T15:27:02.103Z,16.60
2023-05-04T15:29:29.500Z,16.50
2023-05-04T15:31:56.792Z,16.50
2023-05-04T15:34:24.111Z,16.30
2023-05-04T15:36:52.107Z,16.20
2023-05-04T15:39:19.196Z,15.80
2023-05-04T15:41:46.495Z,15.60
2023-05-04T15:44:13.759Z,15.60
2023-05-04T15:46:41.028Z,15.60
2023-05-04T15:49:08.404Z,15.60
2023-05-04T15:51:35.553Z,15.70
2023-05-04T15:54:03.431Z,15.50
2023-05-04T15:56:30.511Z,15.40
2023-05-04T15:58:57.684Z,15.30
2023-05-04T16:01:25.338Z,15.30
2023-05-04T16:03:55.586Z,15.30
2023-05-04T16:06:23.733Z,15.40
2023-05-04T16:08:51.122Z,15.20
2023-05-04T16:11:18.222Z,15.10
2023-05-04T16:13:46.368Z,15.20
2023-05-04T16:16:13.680Z,14.90
2023-05-04T16:18:40.920Z,14.80
2023-05-04T16:21:08.903Z,14.70
2023-05-04T16:23:36.461Z,14.60
2023-05-04T16:26:03.805Z,14.70
2023-05-04T16:28:30.880Z,14.70
2023-05-04T16:30:58.133Z,14.60
2023-05-04T16:33:26.718Z,14.60
2023-05-04T16:35:54.170Z,14.50
2023-05-04T16:38:21.288Z,14.40
2023-05-04T16:40:48.465Z,14.20
2023-05-04T16:43:15.831Z,14.20
2023-05-04T16:45:43.014Z,14.10
2023-05-04T16:48:10.556Z,14.00
2023-05-04T16:50:42.925Z,13.80
2023-05-04T16:53:11.090Z,13.70
2023-05-04T16:55:41.223Z,13.70
2023-05-04T16:58:09.089Z,13.80
2023-05-04T17:00:36.658Z,13.70
2023-05-04T17:03:04.478Z,13.70
2023-05-04T17:05:35.227Z,13.60
2023-05-04T17:08:02.477Z,13.60
2023-05-04T17:10:29.638Z,13.50
2023-05-04T17:12:57.091Z,13.50
2023-05-04T17:15:24.671Z,13.60
2023-05-04T17:17:51.877Z,13.60
2023-05-04T17:20:19.124Z,13.60
2023-05-04T17:22:46.545Z,13.60
2023-05-04T17:25:14.252Z,13.50
2023-05-04T17:27:43.700Z,13.50
2023-05-04T17:30:11.776Z,13.40
2023-05-04T17:32:39.002Z,13.30
2023-05-04T17:35:20.446Z,13.20
2023-05-04T17:37:53.983Z,13.20
2023-05-04T17:40:23.522Z,13.00
2023-05-04T17:42:50.773Z,12.90
2023-05-04T17:45:18.004Z,12.90
2023-05-04T17:47:46.499Z,12.80
2023-05-04T17:50:13.773Z,12.70
2023-05-04T17:52:41.112Z,12.70
2023-05-04T17:55:08.761Z,12.70
2023-05-04T17:57:36.004Z,12.60
2023-05-04T18:02:33.690Z,12.50
2023-05-04T18:05:01.295Z,12.30
2023-05-04T18:07:32.104Z,12.30
2023-05-04T18:09:59.508Z,12.30
2023-05-04T18:12:29.711Z,12.20
2023-05-04T18:15:00.259Z,12.20
2023-05-04T18:17:29.238Z,12.10
2023-05-04T18:19:57.003Z,12.10
2023-05-04T18:22:24.531Z,12.00
2023-05-04T18:24:52.790Z,12.00
2023-05-04T18:27:22.627Z,11.90
2023-05-04T18:29:52.824Z,11.90
2023-05-04T18:32:20.029Z,11.90
2023-05-04T18:34:51.518Z,11.90
2023-05-04T18:37:18.657Z,11.80
2023-05-04T18:39:45.987Z,11.70
2023-05-04T18:42:13.127Z,11.70
2023-05-04T18:44:40.407Z,11.60
2023-05-04T18:47:08.083Z,11.50
2023-05-04T18:49:35.295Z,11.40
2023-05-04T18:52:02.893Z,11.40
2023-05-04T18:54:33.465Z,11.30
2023-05-04T18:57:01.227Z,11.30
2023-05-04T18:59:28.327Z,11.30
2023-05-04T19:01:56.369Z,11.20
2023-05-04T19:04:23.569Z,11.20
2023-05-04T19:06:53.447Z,11.20
2023-05-04T19:09:20.813Z,11.20
2023-05-04T19:11:47.999Z,11.20
2023-05-04T19:14:15.647Z,11.10
2023-05-04T19:16:42.858Z,11.00
2023-05-04T19:19:10.065Z,11.00
2023-05-04T19:21:37.238Z,11.00
2023-05-04T19:24:04.646Z,11.00
2023-05-04T19:26:32.142Z,10.90
2023-05-04T19:28:59.284Z,10.70
2023-05-04T19:31:26.539Z,10.70
2023-05-04T19:33:53.913Z,10.70
2023-05-04T19:36:21.108Z,10.60
2023-05-04T19:38:48.329Z,10.50
2023-05-04T19:41:15.536Z,10.50
2023-05-04T19:43:42.841Z,10.50
2023-05-04T19:46:10.013Z,10.60
2023-05-04T19:48:40.046Z,10.50
2023-05-04T19:51:07.406Z,10.40
2023-05-04T19:53:35.231Z,10.40
2023-05-04T19:56:02.418Z,10.40
2023-05-04T19:58:32.673Z,10.40
2023-05-04T20:00:59.830Z,10.40
2023-05-04T20:03:27.138Z,10.40
2023-05-04T20:05:54.386Z,10.40
2023-05-04T20:08:21.567Z,10.30
2023-05-04T20:10:48.721Z,10.30
2023-05-04T20:13:16.039Z,10.30
2023-05-04T20:15:45.000Z,10.20
2023-05-04T20:18:12.204Z,10.20
2023-05-04T20:20:39.288Z,10.10
2023-05-04T20:23:07.490Z,10.10
2023-05-04T20:25:34.632Z,10.10
2023-05-04T20:28:09.109Z,10.00
2023-05-04T20:30:36.977Z,10.00
2023-05-04T20:33:04.728Z,10.00
2023-05-04T20:35:31.874Z,9.90
2023-05-04T20:38:10.275Z,9.90
2023-05-04T20:40:37.699Z,10.00
2023-05-04T20:43:05.148Z,10.00
2023-05-04T20:45:32.569Z,10.00
2023-05-04T20:47:59.811Z,9.90
2023-05-04T20:50:29.458Z,9.90
2023-05-04T20:52:56.682Z,9.90
2023-05-04T20:55:23.984Z,9.90
2023-05-04T20:57:52.176Z,9.90
2023-05-04T21:00:19.980Z,9.80
2023-05-04T21:02:47.233Z,9.80
2023-05-04T21:05:14.412Z,9.80
2023-05-04T21:07:41.513Z,9.80
2023-05-04T21:10:09.809Z,9.80
2023-05-04T21:12:37.192Z,9.70
2023-05-04T21:15:05.517Z,9.70
2023-05-04T21:17:32.735Z,9.70
2023-05-04T21:19:59.869Z,9.70
2023-05-04T21:22:27.559Z,9.70
2023-05-04T21:24:54.705Z,9.70
2023-05-04T21:27:21.805Z,9.70
2023-05-04T21:29:48.945Z,9.70
2023-05-04T21:32:16.096Z,9.70
2023-05-04T21:34:43.312Z,9.70
2023-05-04T21:37:11.412Z,9.80
2023-05-04T21:39:38.601Z,9.70
2023-05-04T21:42:05.702Z,9.60
2023-05-04T21:44:32.786Z,9.60
2023-05-04T21:47:01.924Z,9.60
2023-05-04T21:49:29.280Z,9.60
2023-05-04T21:51:56.475Z,9.60
2023-05-04T21:54:25.704Z,9.60
2023-05-04T21:56:54.115Z,9.60
2023-05-04T21:59:21.276Z,9.60
2023-05-04T22:01:48.829Z,9.60
2023-05-04T22:04:16.284Z,9.50
2023-05-04T22:06:44.680Z,9.50
2023-05-04T22:09:13.375Z,9.50
2023-05-04T22:11:40.590Z,9.40
2023-05-04T22:14:07.735Z,9.50
2023-05-04T22:16:34.894Z,10.60
2023-05-04T22:19:02.107Z,9.50
2023-05-04T22:21:29.372Z,9.40
2023-05-04T22:23:56.454Z,9.40
2023-05-04T22:26:23.709Z,9.40
2023-05-04T22:28:51.114Z,9.40
2023-05-04T22:31:18.515Z,9.40
2023-05-04T22:33:45.973Z,9.30
2023-05-04T22:36:15.835Z,9.20
2023-05-04T22:38:43.680Z,9.30
2023-05-04T22:41:14.553Z,9.30
2023-05-04T22:43:41.783Z,9.30
2023-05-04T22:46:17.261Z,9.20
2023-05-04T22:48:47.864Z,9.20
2023-05-04T22:51:15.033Z,9.20
2023-05-04T22:53:42.301Z,9.20
2023-05-04T22:56:09.653Z,9.10
2023-05-04T22:58:37.318Z,9.00
2023-05-04T23:01:10.437Z,8.90
2023-05-04T23:03:38.957Z,8.90
2023-05-04T23:06:06.512Z,8.90
2023-05-04T23:08:33.656Z,8.90
2023-05-04T23:11:00.850Z,8.90
2023-05-04T23:13:28.496Z,8.80
2023-05-04T23:15:55.872Z,8.80
2023-05-04T23:18:23.212Z,8.80
2023-05-04T23:20:50.746Z,8.80
2023-05-04T23:23:17.998Z,8.80
2023-05-04T23:25:45.274Z,8.80
2023-05-04T23:28:12.458Z,8.80
2023-05-04T23:30:39.580Z,8.70
2023-05-04T23:33:07.108Z,8.70
2023-05-04T23:35:34.355Z,8.70
2023-05-04T23:38:01.520Z,8.70
2023-05-04T23:40:28.586Z,8.70
2023-05-04T23:42:55.734Z,8.70
2023-05-04T23:45:22.909Z,8.70
2023-05-04T23:47:50.004Z,8.60
2023-05-04T23:50:17.498Z,8.60
2023-05-04T23:52:44.734Z,8.60
2023-05-04T23:55:11.919Z,8.60
2023-05-04T23:57:39.086Z,8.60
